Time;durP1;ratioP1;P1;durP2;ratioP2;P2;SDS_P1;SDS_P2;PMS_P1;PMS_P2;Temp;Humidity;BMP_temperature;BMP_pressure;BME280_temperature;BME280_humidity;BME280_pressure;Samples;Min_cycle;Max_cycle;Signal;HPM_P1;HPM_P2
2021/03/24 00:02:06;;;;;;;31.63;18.80;;;;;;;6.40;100.00;102284.30;1775754;81;26301;-77
2021/03/24 00:04:36;;;;;;;33.30;18.70;;;;;;;6.47;100.00;102277.34;1775810;81;26324;-77
2021/03/24 00:07:06;;;;;;;31.40;18.93;;;;;;;6.28;100.00;102274.20;1772916;79;26273;-77
2021/03/24 00:09:38;;;;;;;36.70;18.83;;;;;;;6.37;100.00;102277.82;1844874;77;26689;-77
2021/03/24 00:12:10;;;;;;;30.77;17.37;;;;;;;6.39;100.00;102272.94;1844276;77;26205;-78
2021/03/24 00:14:40;;;;;;;34.10;19.27;;;;;;;6.34;100.00;102271.38;1844255;77;26713;-77
2021/03/24 00:17:09;;;;;;;28.80;17.90;;;;;;;6.31;100.00;102264.08;1840422;77;26279;-78
2021/03/24 00:19:39;;;;;;;30.93;18.00;;;;;;;6.30;100.00;102261.85;1838153;77;26734;-76
2021/03/24 00:22:09;;;;;;;35.77;18.67;;;;;;;6.29;100.00;102256.58;1838124;77;26657;-79
2021/03/24 00:24:39;;;;;;;37.37;19.47;;;;;;;6.22;100.00;102263.50;1838235;78;26680;-79
2021/03/24 00:27:10;;;;;;;35.40;19.33;;;;;;;6.28;100.00;102259.87;1838099;77;26225;-77
2021/03/24 00:29:40;;;;;;;31.97;18.80;;;;;;;6.26;100.00;102250.95;1838207;77;26267;-77
2021/03/24 00:32:10;;;;;;;34.73;19.37;;;;;;;6.34;100.00;102265.01;1838079;78;26205;-77
2021/03/24 00:34:40;;;;;;;32.00;18.83;;;;;;;6.29;100.00;102260.16;1838214;77;26291;-77
2021/03/24 00:37:10;;;;;;;36.07;19.57;;;;;;;6.28;100.00;102254.88;1838171;77;26290;-77
2021/03/24 00:39:40;;;;;;;33.93;19.47;;;;;;;6.39;100.00;102252.24;1838066;78;26189;-78
2021/03/24 00:42:11;;;;;;;31.37;17.67;;;;;;;6.39;100.00;102250.86;1838056;78;26663;-77
2021/03/24 00:44:41;;;;;;;34.57;18.63;;;;;;;6.22;100.00;102248.33;1838188;77;26322;-77
2021/03/24 00:47:11;;;;;;;34.07;19.23;;;;;;;6.28;100.00;102251.59;1838049;77;26201;-77
2021/03/24 00:49:40;;;;;;;40.70;20.23;;;;;;;6.19;100.00;102251.54;1838071;77;26729;-80
2021/03/24 00:52:10;;;;;;;31.73;19.87;;;;;;;6.30;100.00;102247.20;1838106;77;26652;-79
2021/03/24 00:54:40;;;;;;;33.33;20.17;;;;;;;6.45;100.00;102252.42;1838037;78;26706;-77
2021/03/24 00:57:10;;;;;;;35.33;19.47;;;;;;;6.34;100.00;102251.21;1838106;77;26255;-77
2021/03/24 00:59:40;;;;;;;31.23;19.30;;;;;;;6.34;100.00;102248.45;1838205;77;26189;-78
2021/03/24 01:02:10;;;;;;;36.47;19.13;;;;;;;6.27;100.00;102249.89;1838050;77;26225;-77
2021/03/24 01:04:40;;;;;;;37.50;20.70;;;;;;;6.17;100.00;102246.77;1838189;77;26197;-77
2021/03/24 01:07:18;;;;;;;40.67;21.87;;;;;;;6.19;100.00;102246.55;1838037;77;26197;-77
2021/03/24 01:09:47;;;;;;;40.50;20.73;;;;;;;6.16;100.00;102249.77;1838136;77;26189;-79
2021/03/24 01:12:17;;;;;;;37.33;21.77;;;;;;;6.21;100.00;102241.64;1838151;77;26204;-78
2021/03/24 01:14:48;;;;;;;37.33;20.90;;;;;;;6.23;100.00;102243.13;1838039;77;26745;-78
2021/03/24 01:17:19;;;;;;;42.23;21.37;;;;;;;6.23;100.00;102245.04;1838323;77;26200;-79
2021/03/24 01:19:49;;;;;;;38.87;20.67;;;;;;;6.23;100.00;102233.47;1838251;77;26656;-78
2021/03/24 01:22:18;;;;;;;39.33;21.20;;;;;;;6.19;100.00;102234.14;1838073;78;26197;-78
2021/03/24 01:24:48;;;;;;;38.33;20.63;;;;;;;6.14;100.00;102236.70;1838267;77;26279;-78
2021/03/24 01:27:18;;;;;;;37.10;20.83;;;;;;;6.10;100.00;102236.31;1838066;78;26209;-79
2021/03/24 01:29:48;;;;;;;40.70;22.10;;;;;;;6.24;100.00;102242.06;1838077;78;26202;-78
2021/03/24 01:32:18;;;;;;;46.47;22.53;;;;;;;6.18;100.00;102233.81;1838173;77;26651;-78
2021/03/24 01:34:55;;;;;;;36.50;20.73;;;;;;;6.26;100.00;102234.92;1838066;77;26640;-78
2021/03/24 01:37:25;;;;;;;36.03;20.67;;;;;;;6.22;100.00;102234.53;1838166;77;26197;-78
2021/03/24 01:39:54;;;;;;;39.73;21.27;;;;;;;6.30;100.00;102231.50;1838119;77;26208;-78
2021/03/24 01:42:24;;;;;;;37.97;21.27;;;;;;;6.32;100.00;102229.38;1838224;77;26205;-77
2021/03/24 01:45:08;;;;;;;38.17;21.03;;;;;;;6.23;100.00;102233.47;1838081;77;26181;-78
2021/03/24 01:47:38;;;;;;;40.07;21.70;;;;;;;6.23;100.00;102230.71;1838081;77;26620;-78
2021/03/24 01:50:14;;;;;;;40.07;21.47;;;;;;;6.15;100.00;102224.09;1837996;78;26287;-78
2021/03/24 01:52:44;;;;;;;33.27;20.47;;;;;;;6.22;100.00;102222.64;1838124;77;26718;-78
2021/03/24 01:55:14;;;;;;;39.40;21.70;;;;;;;6.06;100.00;102224.03;1838009;78;26275;-77
2021/03/24 01:57:45;;;;;;;40.33;20.97;;;;;;;6.13;100.00;102225.36;1838035;77;26683;-77
2021/03/24 02:00:20;;;;;;;35.30;21.20;;;;;;;6.14;100.00;102226.53;1837974;78;26217;-77
2021/03/24 02:02:50;;;;;;;36.47;20.33;;;;;;;6.15;100.00;102219.95;1838145;77;26225;-77
2021/03/24 02:05:20;;;;;;;39.70;21.00;;;;;;;6.09;100.00;102217.22;1838078;77;26259;-77
2021/03/24 02:07:53;;;;;;;37.23;21.47;;;;;;;6.16;100.00;102215.28;1838009;78;26201;-78
2021/03/24 02:10:26;;;;;;;40.17;21.77;;;;;;;6.17;100.00;102215.03;1838138;76;26754;-78
2021/03/24 02:12:58;;;;;;;39.37;21.37;;;;;;;6.18;100.00;102212.59;1838078;78;26208;-78
2021/03/24 02:15:31;;;;;;;39.60;21.43;;;;;;;6.18;100.00;102208.45;1837959;76;26672;-77
2021/03/24 02:18:04;;;;;;;39.73;22.63;;;;;;;6.11;100.00;102209.05;1838043;77;26664;-78
2021/03/24 02:20:37;;;;;;;41.37;21.03;;;;;;;6.13;100.00;102206.89;1838050;77;26716;-78
2021/03/24 02:23:11;;;;;;;42.27;21.33;;;;;;;6.07;100.00;102202.28;1837994;77;26303;-78
2021/03/24 02:25:44;;;;;;;39.50;21.03;;;;;;;6.01;100.00;102203.16;1837968;76;26221;-77
2021/03/24 02:28:19;;;;;;;40.70;21.43;;;;;;;6.02;100.00;102208.15;1838117;77;26244;-78
2021/03/24 02:30:51;;;;;;;39.53;21.63;;;;;;;6.00;100.00;102206.13;1838167;77;26209;-78
2021/03/24 02:33:24;;;;;;;38.13;21.93;;;;;;;6.03;100.00;102198.81;1838154;77;26205;-78
2021/03/24 02:35:57;;;;;;;40.67;21.80;;;;;;;6.00;100.00;102204.75;1838169;77;26323;-78
2021/03/24 02:38:29;;;;;;;39.63;20.63;;;;;;;6.14;100.00;102199.47;1838210;78;26683;-78
2021/03/24 02:41:02;;;;;;;45.60;22.43;;;;;;;6.01;100.00;102201.78;1838171;77;26201;-78
2021/03/24 02:43:35;;;;;;;43.17;21.80;;;;;;;5.99;100.00;102197.01;1838174;77;26209;-78
2021/03/24 02:46:08;;;;;;;41.63;21.03;;;;;;;5.82;100.00;102196.66;1838242;77;26741;-77
2021/03/24 02:48:41;;;;;;;39.63;21.27;;;;;;;5.87;100.00;102203.77;1838212;77;26272;-77
2021/03/24 02:51:14;;;;;;;39.03;21.23;;;;;;;5.86;100.00;102193.80;1838131;77;26282;-78
2021/03/24 02:53:44;;;;;;;37.70;21.13;;;;;;;5.87;100.00;102194.65;1838050;76;26724;-78
2021/03/24 02:56:14;;;;;;;40.37;21.97;;;;;;;5.70;100.00;102196.20;1838167;77;26252;-77
2021/03/24 02:58:44;;;;;;;48.23;22.67;;;;;;;5.56;100.00;102193.22;1838190;78;26297;-77
2021/03/24 03:01:17;;;;;;;41.03;21.40;;;;;;;5.69;100.00;102193.97;1838164;77;26240;-77
2021/03/24 03:03:50;;;;;;;46.27;22.83;;;;;;;5.57;100.00;102192.13;1838114;77;26253;-77
2021/03/24 03:06:22;;;;;;;38.17;21.50;;;;;;;5.53;100.00;102192.25;1838106;78;26201;-78
2021/03/24 03:08:55;;;;;;;40.53;22.87;;;;;;;5.59;100.00;102193.63;1838030;76;26309;-78
2021/03/24 03:11:29;;;;;;;41.53;22.73;;;;;;;5.65;100.00;102187.77;1838112;78;26217;-77
2021/03/24 03:14:03;;;;;;;41.57;23.00;;;;;;;5.65;100.00;102194.66;1838092;78;26667;-78
2021/03/24 03:16:37;;;;;;;35.70;21.63;;;;;;;5.62;100.00;102189.04;1838392;77;26192;-77
2021/03/24 03:19:11;;;;;;;39.60;21.77;;;;;;;5.54;100.00;102184.31;1838185;77;26714;-78
2021/03/24 03:21:44;;;;;;;41.53;22.83;;;;;;;5.32;100.00;102180.48;1838266;78;26619;-78
2021/03/24 03:24:16;;;;;;;45.60;22.90;;;;;;;5.35;100.00;102173.68;1838227;77;26267;-78
2021/03/24 03:26:48;;;;;;;45.63;22.93;;;;;;;5.52;100.00;102180.38;1838121;77;26206;-77
2021/03/24 03:29:20;;;;;;;45.80;24.23;;;;;;;5.55;100.00;102178.59;1838203;77;26213;-77
2021/03/24 03:31:53;;;;;;;39.60;23.27;;;;;;;5.41;100.00;102179.70;1838338;77;26306;-77
2021/03/24 03:34:42;;;;;;;42.13;23.90;;;;;;;5.25;100.00;102182.43;1751357;82;33753;-78
2021/03/24 03:37:13;;;;;;;38.73;21.63;;;;;;;5.22;100.00;102172.38;1751846;82;26228;-79
2021/03/24 03:39:46;;;;;;;40.90;20.10;;;;;;;5.18;100.00;102172.50;1751908;82;26643;-78
2021/03/24 03:42:17;;;;;;;38.43;21.13;;;;;;;5.00;100.00;102178.17;1751975;82;26729;-78
2021/03/24 03:44:47;;;;;;;41.37;22.00;;;;;;;4.85;100.00;102183.06;1751860;82;26658;-78
2021/03/24 03:47:17;;;;;;;41.53;21.87;;;;;;;4.65;100.00;102182.27;1751843;82;26235;-78
2021/03/24 03:49:47;;;;;;;37.80;20.60;;;;;;;4.66;100.00;102181.73;1751823;82;26235;-78
2021/03/24 03:52:41;;;;;;;36.40;21.33;;;;;;;4.48;100.00;102177.73;1751866;82;26236;-77
2021/03/24 03:55:18;;;;;;;33.43;19.57;;;;;;;4.50;100.00;102179.72;1751121;81;26229;-78
2021/03/24 03:57:54;;;;;;;34.67;19.47;;;;;;;4.47;100.00;102171.05;1752037;82;26698;-78
2021/03/24 04:00:27;;;;;;;34.07;19.67;;;;;;;4.39;100.00;102174.02;1751843;82;26223;-78
2021/03/24 04:03:00;;;;;;;37.60;20.53;;;;;;;4.57;100.00;102178.36;1751828;82;26263;-78
2021/03/24 04:05:33;;;;;;;38.67;20.93;;;;;;;4.71;100.00;102186.05;1777055;78;26279;-78
2021/03/24 04:08:07;;;;;;;37.60;20.90;;;;;;;4.60;100.00;102184.80;1838286;77;26627;-77
2021/03/24 04:10:41;;;;;;;44.43;21.00;;;;;;;4.36;100.00;102182.70;1837991;76;26260;-78
2021/03/24 04:13:11;;;;;;;35.00;20.40;;;;;;;4.30;100.00;102178.89;1838381;77;26276;-77
2021/03/24 04:15:41;;;;;;;41.07;21.97;;;;;;;4.34;100.00;102178.78;1838231;77;26212;-78
2021/03/24 04:18:14;;;;;;;39.77;22.03;;;;;;;4.36;100.00;102178.05;1838067;78;26217;-77
2021/03/24 04:20:47;;;;;;;36.60;21.10;;;;;;;4.32;100.00;102172.63;1838118;77;26212;-78
2021/03/24 04:23:20;;;;;;;40.43;22.30;;;;;;;4.26;100.00;102173.50;1838149;77;26335;-78
2021/03/24 04:25:53;;;;;;;39.77;22.23;;;;;;;4.36;100.00;102177.20;1838184;77;26644;-77
2021/03/24 04:28:25;;;;;;;38.03;21.17;;;;;;;4.25;100.00;102179.20;1838156;78;26197;-78
2021/03/24 04:30:58;;;;;;;39.80;20.57;;;;;;;4.24;100.00;102175.59;1838270;77;26216;-78
2021/03/24 04:33:28;;;;;;;36.93;21.10;;;;;;;4.01;100.00;102179.30;1838163;77;26598;-78
2021/03/24 04:36:01;;;;;;;35.93;19.77;;;;;;;4.12;100.00;102175.91;1838082;77;26656;-78
2021/03/24 04:38:34;;;;;;;31.40;17.47;;;;;;;4.15;100.00;102180.98;1838205;78;26630;-76
2021/03/24 04:41:07;;;;;;;38.83;20.20;;;;;;;4.13;100.00;102181.21;1838122;77;26204;-78
2021/03/24 04:43:41;;;;;;;32.67;18.17;;;;;;;4.11;100.00;102184.69;1838085;77;26248;-78
2021/03/24 04:46:15;;;;;;;37.60;20.33;;;;;;;4.11;100.00;102182.46;1838078;78;26275;-76
2021/03/24 04:48:49;;;;;;;39.40;21.73;;;;;;;4.08;100.00;102185.64;1837923;76;26655;-78
2021/03/24 04:51:23;;;;;;;27.83;16.97;;;;;;;3.94;100.00;102192.17;1838104;77;26220;-78
2021/03/24 04:53:56;;;;;;;23.57;15.03;;;;;;;3.94;100.00;102196.29;1838157;77;26197;-78
2021/03/24 04:56:26;;;;;;;22.77;15.00;;;;;;;3.85;100.00;102180.52;1838047;78;26193;-78
2021/03/24 04:58:58;;;;;;;27.70;17.17;;;;;;;3.85;100.00;102181.89;1838137;77;26197;-78
2021/03/24 05:01:31;;;;;;;32.00;19.60;;;;;;;3.87;100.00;102188.57;1826407;77;934942;-78
2021/03/24 05:04:05;;;;;;;32.47;19.17;;;;;;;3.89;100.00;102187.84;1837928;76;26224;-78
2021/03/24 05:06:38;;;;;;;36.87;20.10;;;;;;;3.95;100.00;102176.00;1838102;77;26286;-79
2021/03/24 05:09:10;;;;;;;43.40;22.20;;;;;;;3.95;100.00;102177.38;1838069;77;26197;-77
2021/03/24 05:11:43;;;;;;;38.03;22.53;;;;;;;4.06;100.00;102169.34;1838096;76;26241;-77
2021/03/24 05:14:21;;;;;;;40.93;22.47;;;;;;;4.05;100.00;102176.45;1838132;78;26212;-77
2021/03/24 05:16:54;;;;;;;36.80;20.63;;;;;;;4.06;100.00;102175.39;1838108;77;26632;-77
2021/03/24 05:19:27;;;;;;;42.47;23.63;;;;;;;4.01;100.00;102174.65;1837796;76;26267;-78
2021/03/24 05:22:11;;;;;;;42.80;22.03;;;;;;;4.02;100.00;102179.06;1838196;77;26282;-78
2021/03/24 05:24:43;;;;;;;43.53;23.10;;;;;;;3.93;100.00;102175.38;1838233;77;26648;-79
2021/03/24 05:27:18;;;;;;;44.23;23.70;;;;;;;3.93;100.00;102174.86;1838206;77;26200;-77
2021/03/24 05:29:51;;;;;;;46.27;23.30;;;;;;;3.85;100.00;102169.53;1838052;77;26318;-77
2021/03/24 05:32:24;;;;;;;46.70;24.10;;;;;;;3.89;100.00;102165.86;1838197;77;26200;-78
2021/03/24 05:34:57;;;;;;;46.23;24.37;;;;;;;3.87;100.00;102170.18;1838109;77;26205;-78
2021/03/24 05:37:29;;;;;;;42.77;22.37;;;;;;;3.90;100.00;102168.91;1838053;78;26266;-78
2021/03/24 05:40:11;;;;;;;35.10;20.87;;;;;;;3.92;100.00;102166.80;1838099;77;26612;-78
2021/03/24 05:42:52;;;;;;;36.90;21.57;;;;;;;3.96;100.00;102164.80;1838168;77;26208;-78
2021/03/24 05:45:32;;;;;;;33.67;19.37;;;;;;;3.80;100.00;102172.08;1837853;76;26686;-78
2021/03/24 05:48:54;;;;;;;35.70;20.67;;;;;;;3.60;100.00;102170.64;1837856;76;26209;-77
2021/03/24 05:51:43;;;;;;;39.07;20.40;;;;;;;3.58;100.00;102166.42;1832495;77;26205;-79
2021/03/24 05:54:35;;;;;;;38.60;20.40;;;;;;;3.65;100.00;102166.75;1838094;77;26729;-79
2021/03/24 05:57:28;;;;;;;35.30;21.57;;;;;;;3.78;100.00;102169.20;1837869;76;26210;-78
2021/03/24 06:00:11;;;;;;;48.83;24.00;;;;;;;3.94;100.00;102175.15;1837905;76;26597;-78
2021/03/24 06:02:45;;;;;;;45.70;25.20;;;;;;;4.01;100.00;102169.67;1838169;77;26229;-78
2021/03/24 06:05:18;;;;;;;46.80;25.60;;;;;;;4.08;100.00;102171.89;1838206;78;26644;-79
2021/03/24 06:08:21;;;;;;;56.93;28.27;;;;;;;4.08;100.00;102166.39;1838227;77;26318;-78
2021/03/24 06:11:44;;;;;;;49.20;23.63;;;;;;;4.19;100.00;102169.91;1837975;76;26749;-78
2021/03/24 06:14:42;;;;;;;55.30;26.97;;;;;;;3.99;100.00;102176.75;1768396;81;26242;-79
2021/03/24 06:17:36;;;;;;;56.80;27.27;;;;;;;4.11;100.00;102186.59;1768302;81;26233;-77
2021/03/24 06:20:29;;;;;;;56.40;28.13;;;;;;;4.20;100.00;102188.60;1767995;81;26757;-77
2021/03/24 06:23:38;;;;;;;57.03;27.13;;;;;;;4.25;100.00;102173.17;1768278;81;26594;-77
2021/03/24 06:26:16;;;;;;;47.23;24.93;;;;;;;4.38;100.00;102175.92;1725111;83;26213;-78
2021/03/24 06:28:53;;;;;;;48.97;26.97;;;;;;;4.28;100.00;102163.67;1768422;81;26238;-78
2021/03/24 06:31:47;;;;;;;54.07;26.67;;;;;;;4.44;100.00;102164.08;1768257;81;26338;-78
2021/03/24 06:34:54;;;;;;;53.80;27.27;;;;;;;4.49;100.00;102163.45;1767840;80;26316;-78
2021/03/24 06:37:53;;;;;;;46.87;24.40;;;;;;;4.50;100.00;102154.11;1680043;81;26685;-76
2021/03/24 06:40:48;;;;;;;38.10;22.10;;;;;;;4.56;100.00;102151.36;1767997;81;26772;-77
2021/03/24 06:43:42;;;;;;;30.47;18.90;;;;;;;4.61;100.00;102156.75;1768293;81;26807;-77
2021/03/24 06:46:19;;;;;;;33.37;19.00;;;;;;;4.43;100.00;102159.63;1716329;83;26306;-78
2021/03/24 06:49:19;;;;;;;29.50;18.60;;;;;;;4.13;100.00;102160.59;1776869;79;26231;-78
2021/03/24 06:52:14;;;;;;;34.33;19.57;;;;;;;4.30;100.00;102154.13;1766885;80;26282;-77
2021/03/24 06:55:29;;;;;;;34.27;20.20;;;;;;;4.28;100.00;102156.23;1803680;79;26712;-77
2021/03/24 06:58:15;;;;;;;36.03;20.53;;;;;;;4.34;100.00;102155.93;1803894;79;26274;-78
2021/03/24 07:01:04;;;;;;;40.40;21.50;;;;;;;4.69;100.00;102166.16;1795572;80;26316;-78
2021/03/24 07:03:51;;;;;;;42.47;22.23;;;;;;;4.78;100.00;102156.62;1804229;79;26683;-76
2021/03/24 07:07:07;;;;;;;44.23;24.03;;;;;;;4.88;100.00;102160.60;1802446;79;26699;-75
2021/03/24 07:09:41;;;;;;;41.60;23.13;;;;;;;4.95;100.00;102167.48;1767057;80;26275;-78
2021/03/24 07:12:16;;;;;;;42.00;23.13;;;;;;;5.27;100.00;102169.27;1802067;77;26247;-77
2021/03/24 07:15:31;;;;;;;45.70;26.27;;;;;;;5.14;100.00;102172.59;1838048;76;26205;-77
2021/03/24 07:18:26;;;;;;;54.03;27.47;;;;;;;5.30;100.00;102179.88;1838156;77;26298;-78
2021/03/24 07:21:31;;;;;;;54.40;27.73;;;;;;;5.17;100.00;102179.92;1837939;76;26212;-77
2021/03/24 07:24:40;;;;;;;57.20;29.20;;;;;;;5.15;100.00;102182.55;1836811;76;26260;-80
2021/03/24 07:27:30;;;;;;;63.23;30.50;;;;;;;5.20;100.00;102186.36;1837913;77;26703;-77
2021/03/24 07:30:21;;;;;;;62.93;29.83;;;;;;;5.50;100.00;102182.53;1837787;76;26216;-77
2021/03/24 07:32:55;;;;;;;60.37;29.87;;;;;;;5.62;100.00;102171.12;1838173;77;26217;-79
2021/03/24 07:35:50;;;;;;;60.57;30.40;;;;;;;5.76;100.00;102178.79;1838161;77;26209;-79
2021/03/24 07:38:52;;;;;;;63.30;31.80;;;;;;;5.98;100.00;102180.70;1837928;76;26327;-78
2021/03/24 07:41:49;;;;;;;62.17;32.30;;;;;;;6.14;100.00;102186.52;1837954;76;26200;-78
2021/03/24 07:44:38;;;;;;;61.63;31.57;;;;;;;6.20;100.00;102180.66;1838176;77;26232;-77
2021/03/24 07:47:33;;;;;;;61.90;31.00;;;;;;;6.34;100.00;102184.45;1837938;76;26636;-76
2021/03/24 07:50:08;;;;;;;60.20;31.57;;;;;;;6.60;100.00;102182.52;1837826;76;26212;-78
2021/03/24 07:52:45;;;;;;;59.87;31.83;;;;;;;6.71;100.00;102182.65;1838193;77;26616;-78
2021/03/24 07:55:18;;;;;;;62.47;32.47;;;;;;;6.85;100.00;102184.72;1838025;78;26251;-78
2021/03/24 07:58:26;;;;;;;56.60;31.00;;;;;;;6.92;100.00;102177.23;1838139;78;26275;-77
2021/03/24 08:01:00;;;;;;;57.03;31.20;;;;;;;7.10;100.00;102178.59;1818952;77;26220;-78
2021/03/24 08:03:34;;;;;;;58.77;31.87;;;;;;;7.44;100.00;102174.39;1838128;77;26268;-77
2021/03/24 08:06:14;;;;;;;57.23;32.33;;;;;;;7.69;100.00;102182.56;1837792;76;26205;-78
2021/03/24 08:08:55;;;;;;;54.60;31.17;;;;;;;7.83;100.00;102184.04;1838049;76;26279;-78
2021/03/24 08:11:29;;;;;;;56.17;30.07;;;;;;;8.16;100.00;102177.50;1837865;76;26264;-77
2021/03/24 08:14:26;;;;;;;58.97;30.87;;;;;;;8.27;100.00;102177.73;1843354;76;26264;-77
2021/03/24 08:17:01;;;;;;;49.93;28.60;;;;;;;8.45;100.00;102172.16;1842474;78;26706;-79
2021/03/24 08:19:45;;;;;;;49.43;27.93;;;;;;;8.45;100.00;102166.61;1844359;77;26351;-77
2021/03/24 08:22:23;;;;;;;50.93;28.90;;;;;;;8.48;100.00;102168.36;1843843;76;26208;-80
2021/03/24 08:25:04;;;;;;;50.83;28.47;;;;;;;8.51;100.00;102167.05;1844171;76;26209;-80
2021/03/24 08:27:37;;;;;;;45.77;26.00;;;;;;;8.63;100.00;102171.52;1844284;76;26270;-79
2021/03/24 08:30:15;;;;;;;46.00;27.50;;;;;;;8.71;100.00;102176.39;1844317;77;26286;-79
2021/03/24 08:33:26;;;;;;;56.33;29.70;;;;;;;8.77;100.00;102183.18;1844293;77;26652;-78
2021/03/24 08:36:06;;;;;;;44.33;25.90;;;;;;;8.76;100.00;102177.36;1843926;76;26201;-77
2021/03/24 08:39:35;;;;;;;45.07;25.93;;;;;;;8.81;100.00;102183.03;1844312;78;26678;-78
2021/03/24 08:42:45;;;;;;;46.30;26.40;;;;;;;8.77;100.00;102173.48;1834838;76;26294;-80
2021/03/24 08:45:22;;;;;;;48.47;26.40;;;;;;;8.87;100.00;102175.12;1826739;77;26675;-79
2021/03/24 08:47:55;;;;;;;43.43;25.57;;;;;;;8.97;100.00;102173.98;1844405;77;26225;-78
2021/03/24 08:50:31;;;;;;;49.27;26.97;;;;;;;9.02;100.00;102175.48;1844305;77;26196;-78
2021/03/24 08:53:08;;;;;;;40.13;24.50;;;;;;;9.00;100.00;102176.80;1844264;77;26318;-78
2021/03/24 08:55:52;;;;;;;44.70;26.20;;;;;;;9.03;100.00;102185.46;1844240;77;26754;-78
2021/03/24 08:58:25;;;;;;;49.17;24.93;;;;;;;9.08;100.00;102174.49;1844345;77;26208;-78
2021/03/24 09:01:56;;;;;;;46.00;24.83;;;;;;;9.14;100.00;102182.39;1844335;77;26620;-76
2021/03/24 09:04:46;;;;;;;45.00;24.80;;;;;;;9.23;100.00;102179.55;1803111;79;26234;-78
2021/03/24 09:07:26;;;;;;;41.60;25.23;;;;;;;9.38;100.00;102181.25;1803171;79;26619;-78
2021/03/24 09:10:09;;;;;;;40.47;23.63;;;;;;;9.54;100.00;102174.92;1803141;79;26300;-78
2021/03/24 09:12:42;;;;;;;43.50;24.53;;;;;;;9.61;100.00;102174.80;1803549;78;26685;-78
2021/03/24 09:15:18;;;;;;;40.60;24.60;;;;;;;9.76;100.00;102170.08;1808504;79;26238;-77
2021/03/24 09:18:10;;;;;;;38.13;23.57;;;;;;;9.83;100.00;102159.70;1808578;79;26797;-77
2021/03/24 09:21:05;;;;;;;44.73;24.73;;;;;;;9.86;100.00;102155.02;1808854;79;26308;-77
2021/03/24 09:24:12;;;;;;;45.47;23.40;;;;;;;9.83;100.00;102152.75;1808211;79;26222;-78
2021/03/24 09:27:12;;;;;;;43.43;23.83;;;;;;;9.95;100.00;102146.05;1807837;79;26222;-79
2021/03/24 09:29:46;;;;;;;38.17;22.63;;;;;;;10.05;100.00;102151.77;1807504;79;26770;-78
2021/03/24 09:32:24;;;;;;;35.70;21.97;;;;;;;10.26;100.00;102159.97;1808438;79;26305;-78
2021/03/24 09:35:26;;;;;;;37.97;21.47;;;;;;;10.79;100.00;102156.66;1808452;79;26638;-77
2021/03/24 09:38:03;;;;;;;35.03;20.87;;;;;;;10.93;100.00;102156.59;1815444;77;26197;-78
2021/03/24 09:40:37;;;;;;;31.90;20.33;;;;;;;11.18;100.00;102150.55;1849286;77;26278;-77
2021/03/24 09:43:17;;;;;;;33.17;20.23;;;;;;;11.25;100.00;102147.02;1849223;77;26208;-78
2021/03/24 09:45:55;;;;;;;32.33;18.37;;;;;;;11.39;100.00;102148.31;1849305;77;26201;-78
2021/03/24 09:48:25;;;;;;;26.47;17.47;;;;;;;11.41;100.00;102140.56;1849299;77;26360;-78
2021/03/24 09:51:06;;;;;;;27.63;17.63;;;;;;;11.70;100.00;102132.83;1849295;77;26256;-78
2021/03/24 09:53:42;;;;;;;29.83;17.50;;;;;;;11.97;100.00;102125.91;1849234;77;26192;-78
2021/03/24 09:56:17;;;;;;;26.07;16.23;;;;;;;12.09;100.00;102115.44;1849240;77;26301;-78
2021/03/24 09:58:57;;;;;;;26.10;15.70;;;;;;;12.37;100.00;102113.42;1849202;77;26244;-78
2021/03/24 10:01:48;;;;;;;27.97;15.10;;;;;;;12.52;100.00;102105.19;1849045;77;26695;-78
2021/03/24 10:04:28;;;;;;;24.43;15.43;;;;;;;12.56;100.00;102109.97;1849263;77;26299;-79
2021/03/24 10:07:04;;;;;;;24.40;14.00;;;;;;;12.66;100.00;102108.63;1849162;76;26281;-78
2021/03/24 10:09:37;;;;;;;23.30;13.90;;;;;;;12.92;100.00;102107.41;1849283;77;26218;-78
2021/03/24 10:12:24;;;;;;;24.73;12.83;;;;;;;13.05;100.00;102096.58;1848935;77;26330;-75
2021/03/24 10:14:58;;;;;;;22.33;13.47;;;;;;;12.79;100.00;102104.55;1832251;77;26244;-75
2021/03/24 10:17:31;;;;;;;18.97;13.20;;;;;;;12.79;100.00;102103.16;1848909;76;26328;-77
2021/03/24 10:20:05;;;;;;;22.70;13.07;;;;;;;12.66;100.00;102100.84;1849300;77;26200;-78
2021/03/24 10:22:41;;;;;;;19.03;12.00;;;;;;;12.77;100.00;102095.60;1849060;76;26302;-79
2021/03/24 10:25:16;;;;;;;20.20;12.60;;;;;;;12.71;100.00;102090.54;1849245;77;26299;-79
2021/03/24 10:27:49;;;;;;;22.37;13.00;;;;;;;12.85;100.00;102092.30;1848990;75;26192;-79
2021/03/24 10:30:43;;;;;;;23.20;11.90;;;;;;;12.88;100.00;102092.33;1849201;77;26268;-79
2021/03/24 10:33:19;;;;;;;17.90;11.93;;;;;;;12.96;100.00;102087.63;1849154;77;26251;-79
2021/03/24 10:36:04;;;;;;;22.53;11.67;;;;;;;13.14;100.00;102076.86;1849599;77;26196;-79
2021/03/24 10:38:55;;;;;;;21.00;12.77;;;;;;;13.55;100.00;102082.03;1849455;77;26648;-79
2021/03/24 10:41:42;;;;;;;17.07;11.30;;;;;;;13.38;100.00;102067.47;1849182;77;26221;-79
2021/03/24 10:44:19;;;;;;;18.37;11.20;;;;;;;13.52;100.00;102065.81;1849243;77;26759;-79
2021/03/24 10:47:14;;;;;;;20.77;10.37;;;;;;;13.40;100.00;102063.83;1849264;77;26229;-79
2021/03/24 10:49:53;;;;;;;21.63;11.20;;;;;;;13.44;100.00;102057.98;1849295;77;26654;-78
2021/03/24 10:52:26;;;;;;;16.67;9.73;;;;;;;13.47;100.00;102063.04;1849642;77;26193;-78
2021/03/24 10:55:00;;;;;;;15.27;9.13;;;;;;;13.41;100.00;102055.75;1849381;77;26643;-79
2021/03/24 10:57:41;;;;;;;17.23;10.50;;;;;;;13.46;100.00;102063.30;1849370;77;26286;-78
2021/03/24 11:00:19;;;;;;;17.80;10.30;;;;;;;13.60;100.00;102060.27;1849352;77;26701;-78
2021/03/24 11:02:55;;;;;;;16.30;9.37;;;;;;;13.50;100.00;102059.69;1849287;77;26314;-78
2021/03/24 11:05:30;;;;;;;19.27;9.50;;;;;;;13.59;100.00;102062.22;1849387;77;26212;-79
2021/03/24 11:08:05;;;;;;;15.10;9.43;;;;;;;13.51;100.00;102054.39;1849344;77;26643;-79
2021/03/24 11:10:52;;;;;;;13.50;9.23;;;;;;;13.33;100.00;102054.05;1848998;76;26301;-78
2021/03/24 11:13:29;;;;;;;17.60;10.67;;;;;;;13.32;100.00;102062.12;1849485;77;26216;-79
2021/03/24 11:16:15;;;;;;;16.40;10.27;;;;;;;13.26;100.00;102061.85;1844582;76;26256;-79
2021/03/24 11:18:48;;;;;;;15.47;9.53;;;;;;;13.34;100.00;102068.30;1844278;78;26192;-79
2021/03/24 11:21:32;;;;;;;15.10;9.90;;;;;;;13.36;100.00;102062.70;1844235;78;26635;-79
2021/03/24 11:24:17;;;;;;;15.90;10.17;;;;;;;13.38;100.00;102070.81;1843274;77;26197;-79
2021/03/24 11:26:52;;;;;;;16.70;9.13;;;;;;;13.35;100.00;102071.38;1844525;78;26683;-79
2021/03/24 11:29:25;;;;;;;15.37;9.23;;;;;;;13.32;100.00;102069.95;1844342;78;26213;-79
2021/03/24 11:32:00;;;;;;;15.40;8.83;;;;;;;13.33;100.00;102067.45;1844324;77;26298;-79
2021/03/24 11:34:36;;;;;;;14.33;9.10;;;;;;;13.42;100.00;102067.20;1844277;77;26722;-80
2021/03/24 11:37:08;;;;;;;13.90;8.47;;;;;;;13.35;100.00;102067.19;1844120;76;26220;-79
2021/03/24 11:39:42;;;;;;;15.70;8.80;;;;;;;13.36;100.00;102063.26;1844158;76;26201;-79
2021/03/24 11:42:15;;;;;;;14.13;8.93;;;;;;;13.34;100.00;102062.16;1844193;77;26233;-79
2021/03/24 11:44:48;;;;;;;13.90;8.47;;;;;;;13.39;100.00;102062.73;1844253;77;26201;-79
2021/03/24 11:47:25;;;;;;;13.30;8.30;;;;;;;13.56;100.00;102057.17;1844355;77;26255;-79
2021/03/24 11:49:58;;;;;;;12.07;8.63;;;;;;;13.59;100.00;102052.45;1843056;77;26655;-79
2021/03/24 11:52:56;;;;;;;14.10;8.23;;;;;;;13.75;100.00;102049.67;1844202;77;26291;-80
2021/03/24 11:55:59;;;;;;;15.20;8.33;;;;;;;13.89;100.00;102043.83;1843872;76;26299;-80
2021/03/24 11:59:05;;;;;;;11.87;7.90;;;;;;;14.03;100.00;102045.77;1844278;77;26738;-80
2021/03/24 12:01:48;;;;;;;11.90;7.80;;;;;;;14.05;100.00;102047.74;1796759;79;26365;-80
2021/03/24 12:04:37;;;;;;;11.47;7.63;;;;;;;14.11;100.00;102043.84;1796743;78;26222;-78